Costa Serena — ICAZ — position and weather

sailwx.info

Track history (hours):
 
Tides and Currents Weather Stations Pressure Air Temp Water Temp Dewpoint Dewpoint Depression Visibility Wind Speed Wind Dir Waves Ship Positions

Costa Serena

Last reported at 2019-Oct-11 04:58 UTC. Time now 2019-Oct-17 18:18 UTC.
Position N 33°05' E 125°32'.

Length 290 m; draft 8.3 m.

Type: Ship. MMSI: 247187600.

Date/timePositionNaut miles runAvg speedWind from/ knotsBaromVisibWave heightAir tempDewpointWater temp
2019-Oct-11 04:58N 33°05' E 125°32'816.9
2019-Oct-11 04:30N 33°00' E 125°25'19716.1
2019-Oct-10 16:17N 31°08' E 122°15'1714.8
2019-Oct-10 15:07N 31°15' E 121°57'215.0
2019-Oct-10 15:00N 31°16' E 121°55'814.4
2019-Oct-10 14:27N 31°18' E 121°46'6 0.4
2019-Oct-09 21:56N 31°21' E 121°40'511.7
2019-Oct-09 21:30N 31°19' E 121°45'612.5
2019-Oct-09 20:59N 31°16' E 121°52'611.9
2019-Oct-09 20:30N 31°15' E 121°59'611.6
2019-Oct-09 20:00N 31°14' E 122°05'611.6
2019-Oct-09 19:30N 31°11' E 122°11'612.2
2019-Oct-09 18:59N 31°07' E 122°17'41214.7
2019-Oct-08 15:04N 37°10' E 126°11'1414.4
2019-Oct-08 14:07N 37°20' E 126°23'214.9
2019-Oct-08 13:57N 37°20' E 126°26'  
2019-Oct-02 06:11N 37°48' E 122°57'414.1
2019-Oct-02 05:53N 37°50' E 122°53'1214.1
2019-Oct-02 05:03N 37°54' E 122°39'314.0
2019-Oct-02 04:51N 37°55' E 122°36'1413.4
2019-Oct-02 03:50N 37°60' E 122°20'613.1
2019-Oct-02 03:24N 38°01' E 122°13'612.7
2019-Oct-02 02:58N 38°02' E 122°06'612.6
2019-Oct-02 02:30N 38°03' E 121°58'612.7
2019-Oct-02 02:00N 38°04' E 121°51'713.1
2019-Oct-02 01:29N 38°07' E 121°43'613.2
2019-Oct-02 01:00N 38°09' E 121°35'913.4
2019-Oct-02 00:19N 38°15' E 121°26'413.6
2019-Oct-02 00:00N 38°17' E 121°22'713.8
2019-Oct-01 23:30N 38°22' E 121°15'913.7
2019-Oct-01 22:52N 38°27' E 121°06'513.6
2019-Oct-01 22:29N 38°30' E 121°00'612.3
2019-Oct-01 21:57N 38°33' E 120°53'510.1
2019-Oct-01 21:30N 38°34' E 120°47'611.8
2019-Oct-01 21:00N 38°34' E 120°40'612.7
2019-Oct-01 20:30N 38°34' E 120°32'612.7
2019-Oct-01 20:00N 38°34' E 120°24'612.1
2019-Oct-01 19:29N 38°34' E 120°16'611.9
2019-Oct-01 19:00N 38°34' E 120°08'611.7
2019-Oct-01 18:30N 38°34' E 120°01'611.8
2019-Oct-01 18:00N 38°35' E 119°54'611.8
2019-Oct-01 17:30N 38°36' E 119°46'611.8
2019-Oct-01 17:00N 38°37' E 119°39'611.9
2019-Oct-01 16:30N 38°39' E 119°31'612.3
2019-Oct-01 16:00N 38°40' E 119°24'612.4
2019-Oct-01 15:30N 38°41' E 119°16'612.8
2019-Oct-01 15:00N 38°42' E 119°08'2413.5
2019-Oct-01 13:14N 38°48' E 118°38'314.2
2019-Oct-01 13:00N 38°48' E 118°34'1714.3
2019-Oct-01 11:49N 38°51' E 118°12'514.0
2019-Oct-01 11:27N 38°54' E 118°07'512.1
2019-Oct-01 11:00N 38°56' E 118°01'912.3
2019-Oct-01 10:14N 38°58' E 117°49'  
Track history (hours):
 
Tides and Currents Weather Stations Pressure Air Temp Water Temp Dewpoint Dewpoint Depression Visibility Wind Speed Wind Dir Waves Ship Positions

Costa Serena

Last reported at 2019-Oct-11 04:58 UTC. Time now 2019-Oct-17 18:18 UTC.
Position N 33°05' E 125°32'.

Length 290 m; draft 8.3 m.

Type: Ship. MMSI: 247187600.

Date/timePositionNaut miles runAvg speedWind from/ knotsBaromVisibWave heightAir tempDewpointWater temp
2019-Oct-11 04:58N 33°05' E 125°32'816.9
2019-Oct-11 04:30N 33°00' E 125°25'19716.1
2019-Oct-10 16:17N 31°08' E 122°15'1714.8
2019-Oct-10 15:07N 31°15' E 121°57'215.0
2019-Oct-10 15:00N 31°16' E 121°55'814.4
2019-Oct-10 14:27N 31°18' E 121°46'6 0.4
2019-Oct-09 21:56N 31°21' E 121°40'511.7
2019-Oct-09 21:30N 31°19' E 121°45'612.5
2019-Oct-09 20:59N 31°16' E 121°52'611.9
2019-Oct-09 20:30N 31°15' E 121°59'611.6
2019-Oct-09 20:00N 31°14' E 122°05'611.6
2019-Oct-09 19:30N 31°11' E 122°11'612.2
2019-Oct-09 18:59N 31°07' E 122°17'41214.7
2019-Oct-08 15:04N 37°10' E 126°11'1414.4
2019-Oct-08 14:07N 37°20' E 126°23'214.9
2019-Oct-08 13:57N 37°20' E 126°26'  
2019-Oct-02 06:11N 37°48' E 122°57'414.1
2019-Oct-02 05:53N 37°50' E 122°53'1214.1
2019-Oct-02 05:03N 37°54' E 122°39'314.0
2019-Oct-02 04:51N 37°55' E 122°36'1413.4
2019-Oct-02 03:50N 37°60' E 122°20'613.1
2019-Oct-02 03:24N 38°01' E 122°13'612.7
2019-Oct-02 02:58N 38°02' E 122°06'612.6
2019-Oct-02 02:30N 38°03' E 121°58'612.7
2019-Oct-02 02:00N 38°04' E 121°51'713.1
2019-Oct-02 01:29N 38°07' E 121°43'613.2
2019-Oct-02 01:00N 38°09' E 121°35'913.4
2019-Oct-02 00:19N 38°15' E 121°26'413.6
2019-Oct-02 00:00N 38°17' E 121°22'713.8
2019-Oct-01 23:30N 38°22' E 121°15'913.7
2019-Oct-01 22:52N 38°27' E 121°06'513.6
2019-Oct-01 22:29N 38°30' E 121°00'612.3
2019-Oct-01 21:57N 38°33' E 120°53'510.1
2019-Oct-01 21:30N 38°34' E 120°47'611.8
2019-Oct-01 21:00N 38°34' E 120°40'612.7
2019-Oct-01 20:30N 38°34' E 120°32'612.7
2019-Oct-01 20:00N 38°34' E 120°24'612.1
2019-Oct-01 19:29N 38°34' E 120°16'611.9
2019-Oct-01 19:00N 38°34' E 120°08'611.7
2019-Oct-01 18:30N 38°34' E 120°01'611.8
2019-Oct-01 18:00N 38°35' E 119°54'611.8
2019-Oct-01 17:30N 38°36' E 119°46'611.8
2019-Oct-01 17:00N 38°37' E 119°39'611.9
2019-Oct-01 16:30N 38°39' E 119°31'612.3
2019-Oct-01 16:00N 38°40' E 119°24'612.4
2019-Oct-01 15:30N 38°41' E 119°16'612.8
2019-Oct-01 15:00N 38°42' E 119°08'2413.5
2019-Oct-01 13:14N 38°48' E 118°38'314.2
2019-Oct-01 13:00N 38°48' E 118°34'1714.3
2019-Oct-01 11:49N 38°51' E 118°12'514.0
2019-Oct-01 11:27N 38°54' E 118°07'512.1
2019-Oct-01 11:00N 38°56' E 118°01'912.3
2019-Oct-01 10:14N 38°58' E 117°49'  

Dump ship's entire track history